createdAt,value
2019-01-28T00:00:43.219Z,49.90
2019-01-28T00:03:15.265Z,53.50
2019-01-28T00:05:47.357Z,52.00
2019-01-28T00:08:19.421Z,50.40
2019-01-28T00:10:51.623Z,49.30
2019-01-28T00:13:23.856Z,48.90
2019-01-28T00:15:56.133Z,48.50
2019-01-28T00:18:28.099Z,48.50
2019-01-28T00:21:00.100Z,48.60
2019-01-28T00:23:32.075Z,48.60
2019-01-28T00:26:04.087Z,48.70
2019-01-28T00:28:36.606Z,48.50
2019-01-28T00:31:08.669Z,48.50
2019-01-28T00:33:40.633Z,48.60
2019-01-28T00:36:12.639Z,48.60
2019-01-28T00:38:44.646Z,48.70
2019-01-28T00:41:16.901Z,48.70
2019-01-28T00:43:48.987Z,49.40
2019-01-28T00:46:21.211Z,49.70
2019-01-28T00:48:53.218Z,49.70
2019-01-28T00:51:26.060Z,49.70
2019-01-28T00:53:59.052Z,49.90
2019-01-28T00:56:31.059Z,49.80
2019-01-28T00:59:03.394Z,49.80
2019-01-28T01:01:35.575Z,49.80
2019-01-28T01:04:07.632Z,50.10
2019-01-28T01:06:41.833Z,50.60
2019-01-28T01:09:13.811Z,50.90
2019-01-28T01:11:45.802Z,50.70
2019-01-28T01:14:17.897Z,50.90
2019-01-28T01:16:50.070Z,50.70
2019-01-28T01:19:23.156Z,50.80
2019-01-28T01:21:55.172Z,50.70
2019-01-28T01:24:27.150Z,50.80
2019-01-28T01:26:59.145Z,50.80
2019-01-28T01:29:31.212Z,50.70
2019-01-28T01:32:03.222Z,50.80
2019-01-28T01:34:37.322Z,50.80
2019-01-28T01:37:09.453Z,51.00
2019-01-28T01:39:41.430Z,51.00
2019-01-28T01:42:13.428Z,51.40
2019-01-28T01:44:45.457Z,51.30
2019-01-28T01:47:17.644Z,51.30
2019-01-28T01:49:49.606Z,51.50
2019-01-28T01:52:21.613Z,51.50
2019-01-28T01:54:53.588Z,51.60
2019-01-28T01:57:25.610Z,51.70
2019-01-28T01:59:57.939Z,51.80
2019-01-28T02:02:33.517Z,52.00
2019-01-28T02:05:03.825Z,52.30
2019-01-28T02:07:35.970Z,51.70
2019-01-28T02:10:13.058Z,51.50
2019-01-28T02:12:45.073Z,51.40
2019-01-28T02:15:18.429Z,51.20
2019-01-28T02:17:50.622Z,51.00
2019-01-28T02:20:22.584Z,50.80
2019-01-28T02:22:54.600Z,50.60
2019-01-28T02:25:26.559Z,50.50
2019-01-28T02:27:58.525Z,50.20
2019-01-28T02:30:30.500Z,50.20
2019-01-28T02:33:02.509Z,50.10
2019-01-28T02:35:34.494Z,49.90
2019-01-28T02:38:06.505Z,49.90
2019-01-28T02:40:38.535Z,49.80
2019-01-28T02:43:10.507Z,49.80
2019-01-28T02:45:42.461Z,49.80
2019-01-28T02:48:14.630Z,49.70
2019-01-28T02:50:46.614Z,49.70
2019-01-28T02:53:18.594Z,49.70
2019-01-28T02:55:50.559Z,49.60
2019-01-28T02:58:22.643Z,49.60
2019-01-28T03:00:54.981Z,49.60
2019-01-28T03:03:27.127Z,49.50
2019-01-28T03:05:59.095Z,49.60
2019-01-28T03:08:31.122Z,49.60
2019-01-28T03:11:03.070Z,49.70
2019-01-28T03:13:35.062Z,49.60
2019-01-28T03:16:07.044Z,49.50
2019-01-28T03:18:39.218Z,49.60
2019-01-28T03:21:11.253Z,49.60
2019-01-28T03:23:43.249Z,50.20
2019-01-28T03:26:15.690Z,49.50
2019-01-28T03:28:47.687Z,49.60
2019-01-28T03:31:19.652Z,49.50
2019-01-28T03:33:51.653Z,49.60
2019-01-28T03:36:24.456Z,49.50
2019-01-28T03:38:56.459Z,49.50
2019-01-28T03:41:28.772Z,49.50
2019-01-28T03:44:00.790Z,49.60
2019-01-28T03:46:32.851Z,49.40
2019-01-28T03:49:04.853Z,49.50
2019-01-28T03:51:36.920Z,49.40
2019-01-28T03:54:08.901Z,49.50
2019-01-28T03:56:40.868Z,49.40
2019-01-28T03:59:12.893Z,49.40
2019-01-28T04:01:45.219Z,49.50
2019-01-28T04:04:17.781Z,49.40
2019-01-28T04:06:49.754Z,49.40
2019-01-28T04:09:21.739Z,49.40
2019-01-28T04:11:53.707Z,49.40
2019-01-28T04:14:25.891Z,49.40
2019-01-28T04:16:57.836Z,49.40
2019-01-28T04:19:29.936Z,49.20
2019-01-28T04:22:01.904Z,49.20
2019-01-28T04:24:33.955Z,49.20
2019-01-28T04:27:05.996Z,49.10
2019-01-28T04:29:37.978Z,49.10
2019-01-28T04:32:09.946Z,49.10
2019-01-28T04:34:41.947Z,49.00
2019-01-28T04:37:13.917Z,49.00
2019-01-28T04:39:45.913Z,49.10
2019-01-28T04:42:17.985Z,49.00
2019-01-28T04:44:50.165Z,49.00
2019-01-28T04:47:22.120Z,49.00
2019-01-28T04:49:54.092Z,49.10
2019-01-28T04:52:26.045Z,48.80
2019-01-28T04:54:58.016Z,47.00
2019-01-28T04:57:30.194Z,45.30
2019-01-28T05:00:02.162Z,43.70
2019-01-28T05:02:35.850Z,42.60
2019-01-28T05:05:08.511Z,41.50
2019-01-28T05:07:40.451Z,40.50
2019-01-28T05:10:14.734Z,39.70
2019-01-28T05:12:47.055Z,39.00
2019-01-28T05:15:20.149Z,38.50
2019-01-28T05:17:52.221Z,39.10
2019-01-28T05:20:24.612Z,40.50
2019-01-28T05:22:56.899Z,41.90
2019-01-28T05:25:28.883Z,43.10
2019-01-28T05:28:00.827Z,43.90
2019-01-28T05:30:32.848Z,44.60
2019-01-28T05:33:04.809Z,45.00
2019-01-28T05:35:36.791Z,45.90
2019-01-28T05:38:08.777Z,46.20
2019-01-28T05:40:40.753Z,46.90
2019-01-28T05:43:12.701Z,47.00
2019-01-28T05:45:44.846Z,47.20
2019-01-28T05:48:16.788Z,47.60
2019-01-28T05:50:48.761Z,48.70
2019-01-28T05:53:20.699Z,48.10
2019-01-28T05:55:52.669Z,48.30
2019-01-28T05:58:24.630Z,48.50
2019-01-28T06:00:56.594Z,48.60
2019-01-28T06:12:56.395Z,48.80
2019-01-28T06:15:28.557Z,48.60
2019-01-28T06:18:00.582Z,48.50
2019-01-28T06:20:32.550Z,48.10
2019-01-28T06:23:04.561Z,46.20
2019-01-28T06:25:36.638Z,44.40
2019-01-28T06:28:08.692Z,43.60
2019-01-28T06:30:40.733Z,44.20
2019-01-28T06:33:12.756Z,45.40
2019-01-28T06:35:44.732Z,46.10
2019-01-28T06:38:16.767Z,46.70
2019-01-28T06:40:49.233Z,46.80
2019-01-28T06:43:21.244Z,47.00
2019-01-28T06:45:53.402Z,47.20
2019-01-28T06:48:25.356Z,47.30
2019-01-28T06:50:57.524Z,47.50
2019-01-28T06:53:29.529Z,47.50
2019-01-28T06:56:01.541Z,47.50
2019-01-28T06:58:33.529Z,47.60
2019-01-28T07:01:05.562Z,47.70
2019-01-28T07:03:37.643Z,47.70
2019-01-28T07:06:09.626Z,47.70
2019-01-28T07:08:41.694Z,47.80
2019-01-28T07:11:13.714Z,47.70
2019-01-28T07:13:47.371Z,47.90
2019-01-28T07:16:19.622Z,48.10
2019-01-28T07:18:51.642Z,48.80
2019-01-28T07:21:23.664Z,48.20
2019-01-28T07:23:55.659Z,48.20
2019-01-28T07:26:27.696Z,48.30
2019-01-28T07:28:59.711Z,48.30
2019-01-28T07:31:31.801Z,48.30
2019-01-28T07:34:03.809Z,48.40
2019-01-28T07:36:35.831Z,48.50
2019-01-28T07:39:08.678Z,48.60
2019-01-28T07:41:40.693Z,48.50
2019-01-28T07:44:12.676Z,48.50
2019-01-28T07:46:44.805Z,48.60
2019-01-28T07:49:16.833Z,48.70
2019-01-28T07:51:48.814Z,48.70
2019-01-28T07:54:20.819Z,48.70
2019-01-28T07:56:52.805Z,48.70
2019-01-28T07:59:24.786Z,48.60
2019-01-28T08:01:56.765Z,48.70
2019-01-28T08:04:29.755Z,48.80
2019-01-28T08:07:01.713Z,48.80
2019-01-28T08:09:33.682Z,48.80
2019-01-28T08:12:05.636Z,48.80
2019-01-28T08:14:37.987Z,48.80
2019-01-28T08:17:10.121Z,48.90
2019-01-28T08:19:42.151Z,48.90
2019-01-28T08:22:14.121Z,48.80
2019-01-28T08:24:46.120Z,48.90
2019-01-28T08:27:18.093Z,48.80
2019-01-28T08:29:50.087Z,48.70
2019-01-28T08:32:22.054Z,48.80
2019-01-28T08:34:54.038Z,48.80
2019-01-28T08:37:25.992Z,48.80
2019-01-28T08:39:57.959Z,48.80
2019-01-28T08:42:29.905Z,48.80
2019-01-28T08:45:01.911Z,48.80
2019-01-28T08:47:35.127Z,48.70
2019-01-28T08:50:09.853Z,48.70
2019-01-28T08:52:42.071Z,48.70
2019-01-28T08:55:19.309Z,48.70
2019-01-28T08:57:51.303Z,48.80
2019-01-28T09:00:29.978Z,48.70
2019-01-28T09:03:02.520Z,48.70
2019-01-28T09:05:34.531Z,48.80
2019-01-28T09:08:06.793Z,48.80
2019-01-28T09:10:38.754Z,48.80
2019-01-28T09:13:10.825Z,48.70
2019-01-28T09:15:43.185Z,48.70
2019-01-28T09:18:15.308Z,48.70
2019-01-28T09:20:47.298Z,48.80
2019-01-28T09:23:19.608Z,48.70
2019-01-28T09:25:51.617Z,48.80
2019-01-28T09:28:23.603Z,48.70
2019-01-28T09:30:55.604Z,48.70
2019-01-28T09:33:27.555Z,48.80
2019-01-28T09:35:59.966Z,48.80
2019-01-28T09:38:31.939Z,48.70
2019-01-28T09:41:03.939Z,48.80
2019-01-28T09:43:35.889Z,48.80
2019-01-28T09:46:09.247Z,48.80
2019-01-28T09:48:41.497Z,48.80
2019-01-28T09:51:13.873Z,48.80
2019-01-28T09:53:45.818Z,48.80
2019-01-28T09:56:17.817Z,48.80
2019-01-28T09:58:49.788Z,48.80
2019-01-28T10:01:21.798Z,48.80
2019-01-28T10:03:53.752Z,48.80
2019-01-28T10:06:25.746Z,48.90
2019-01-28T10:09:32.245Z,48.80
2019-01-28T10:12:04.323Z,48.80
2019-01-28T10:14:36.297Z,48.90
2019-01-28T10:17:08.956Z,48.90
2019-01-28T10:19:41.137Z,49.00
2019-01-28T10:22:13.118Z,48.90
2019-01-28T10:24:45.096Z,48.90
2019-01-28T10:27:33.777Z,48.90
2019-01-28T10:30:08.285Z,48.90
2019-01-28T10:32:40.256Z,48.90
2019-01-28T10:35:12.189Z,48.90
2019-01-28T10:37:44.193Z,48.90
2019-01-28T10:40:27.727Z,48.90
2019-01-28T10:42:59.823Z,48.90
2019-01-28T10:45:31.770Z,48.90
2019-01-28T10:48:03.848Z,49.80
2019-01-28T10:50:36.264Z,48.50
2019-01-28T10:53:08.286Z,46.60
2019-01-28T10:55:40.227Z,45.00
2019-01-28T10:58:12.189Z,43.60
2019-01-28T11:00:46.528Z,42.40
2019-01-28T11:03:19.373Z,41.30
2019-01-28T11:05:51.744Z,40.40
2019-01-28T11:08:23.894Z,40.20
2019-01-28T11:10:56.108Z,41.40
2019-01-28T11:13:28.178Z,42.90
2019-01-28T11:16:00.695Z,43.80
2019-01-28T11:18:33.120Z,44.60
2019-01-28T11:21:05.878Z,45.40
2019-01-28T11:23:38.350Z,45.70
2019-01-28T11:26:10.549Z,45.90
2019-01-28T11:28:44.678Z,46.10
2019-01-28T11:31:16.863Z,46.40
2019-01-28T11:33:49.107Z,46.50
2019-01-28T11:36:21.444Z,46.60
2019-01-28T11:38:53.688Z,46.80
2019-01-28T11:41:26.006Z,46.90
2019-01-28T11:43:58.415Z,47.00
2019-01-28T11:46:30.887Z,47.10
2019-01-28T11:49:05.887Z,47.30
2019-01-28T11:51:36.830Z,47.30
2019-01-28T11:54:09.968Z,47.40
2019-01-28T11:56:42.031Z,47.50
2019-01-28T11:59:15.142Z,47.50
2019-01-28T12:01:47.441Z,47.70
2019-01-28T12:04:19.582Z,47.60
2019-01-28T12:06:51.743Z,47.60
2019-01-28T12:09:23.694Z,47.70
2019-01-28T12:11:55.964Z,47.70
2019-01-28T12:14:28.117Z,47.70
2019-01-28T12:17:00.270Z,47.80
2019-01-28T12:19:32.765Z,47.70
2019-01-28T12:22:05.131Z,47.70
2019-01-28T12:24:37.364Z,47.70
2019-01-28T12:27:09.529Z,47.80
2019-01-28T12:29:42.719Z,47.60
2019-01-28T12:32:14.958Z,46.10
2019-01-28T12:34:47.118Z,44.40
2019-01-28T12:37:19.290Z,42.90
2019-01-28T12:39:51.426Z,41.60
2019-01-28T12:42:23.632Z,40.50
2019-01-28T12:44:55.854Z,39.60
2019-01-28T12:47:28.016Z,38.80
2019-01-28T12:50:00.245Z,38.20
2019-01-28T12:52:32.893Z,37.60
2019-01-28T12:55:05.378Z,37.70
2019-01-28T12:57:37.551Z,37.20
2019-01-28T13:00:12.499Z,38.50
2019-01-28T13:02:45.009Z,39.70
2019-01-28T13:05:19.438Z,41.00
2019-01-28T13:07:51.592Z,42.00
2019-01-28T13:10:25.154Z,42.80
2019-01-28T13:12:57.482Z,43.40
2019-01-28T13:15:33.902Z,43.60
2019-01-28T13:18:06.074Z,43.80
2019-01-28T13:20:38.228Z,44.10
2019-01-28T13:23:10.521Z,44.40
2019-01-28T13:25:43.057Z,44.50
2019-01-28T13:28:15.222Z,44.70
2019-01-28T13:30:47.371Z,44.80
2019-01-28T13:33:19.535Z,45.10
2019-01-28T13:35:52.286Z,45.30
2019-01-28T13:38:24.451Z,45.40
2019-01-28T13:40:56.632Z,45.50
2019-01-28T13:43:28.870Z,45.50
2019-01-28T13:46:01.114Z,45.60
2019-01-28T13:48:33.344Z,45.70
2019-01-28T13:51:06.458Z,45.80
2019-01-28T13:53:39.029Z,46.10
2019-01-28T13:56:11.178Z,46.10
2019-01-28T13:58:43.338Z,45.90
2019-01-28T14:01:15.449Z,46.10
2019-01-28T14:03:47.681Z,45.70
2019-01-28T14:06:19.798Z,44.30
2019-01-28T14:08:52.118Z,42.60
2019-01-28T14:11:24.253Z,41.40
2019-01-28T14:13:56.566Z,40.40
2019-01-28T14:16:28.891Z,39.80
2019-01-28T14:19:01.049Z,39.20
2019-01-28T14:21:33.166Z,38.90
2019-01-28T14:24:05.632Z,38.30
2019-01-28T14:26:37.773Z,37.60
2019-01-28T14:29:09.904Z,37.20
2019-01-28T14:31:42.198Z,36.70
2019-01-28T14:34:14.343Z,37.00
2019-01-28T14:36:46.470Z,38.70
2019-01-28T14:39:18.632Z,39.90
2019-01-28T14:41:50.744Z,40.90
2019-01-28T14:44:22.871Z,41.70
2019-01-28T14:46:55.022Z,42.30
2019-01-28T14:49:32.220Z,42.80
2019-01-28T14:52:00.935Z,43.40
2019-01-28T14:54:33.278Z,43.40
2019-01-28T14:57:05.407Z,43.90
2019-01-28T14:59:37.614Z,44.10
2019-01-28T15:02:09.855Z,44.20
2019-01-28T15:04:42.227Z,44.30
2019-01-28T15:07:14.371Z,44.40
2019-01-28T15:09:46.530Z,44.50
2019-01-28T15:12:18.666Z,44.60
2019-01-28T15:14:51.478Z,44.80
2019-01-28T15:17:23.626Z,45.10
2019-01-28T15:20:02.308Z,45.30
2019-01-28T15:22:29.751Z,46.20
2019-01-28T15:25:02.081Z,44.70
2019-01-28T15:27:34.303Z,43.10
2019-01-28T15:30:11.747Z,42.30
2019-01-28T15:32:44.241Z,41.60
2019-01-28T15:35:16.375Z,41.10
2019-01-28T15:37:48.316Z,40.80
2019-01-28T15:40:25.676Z,41.50
2019-01-28T15:42:57.629Z,42.00
2019-01-28T15:45:32.230Z,43.40
2019-01-28T15:48:04.182Z,44.30
2019-01-28T15:50:36.165Z,45.00
2019-01-28T15:53:08.218Z,45.50
2019-01-28T15:55:41.372Z,46.40
2019-01-28T15:58:13.302Z,47.80
2019-01-28T16:00:45.631Z,48.10
2019-01-28T16:03:17.590Z,48.80
2019-01-28T16:05:49.582Z,48.90
2019-01-28T16:08:21.504Z,48.80
2019-01-28T16:10:53.516Z,49.00
2019-01-28T16:13:26.003Z,48.80
2019-01-28T16:15:58.147Z,48.70
2019-01-28T16:18:34.484Z,48.60
2019-01-28T16:21:04.248Z,48.60
2019-01-28T16:23:36.571Z,48.50
2019-01-28T16:26:08.706Z,48.70
2019-01-28T16:28:40.995Z,48.60
2019-01-28T16:31:12.968Z,48.70
2019-01-28T16:33:44.919Z,48.80
2019-01-28T16:36:16.901Z,49.00
2019-01-28T16:38:48.871Z,49.00
2019-01-28T16:41:20.874Z,49.10
2019-01-28T16:43:52.922Z,49.30
2019-01-28T16:46:24.868Z,49.20
2019-01-28T16:48:57.214Z,49.30
2019-01-28T16:51:29.183Z,49.40
2019-01-28T16:54:01.135Z,49.50
2019-01-28T16:56:33.255Z,49.50
2019-01-28T16:59:05.181Z,49.60
2019-01-28T17:01:37.173Z,49.50
2019-01-28T17:04:09.225Z,49.80
2019-01-28T17:06:41.588Z,49.70
2019-01-28T17:09:13.553Z,49.80
2019-01-28T17:11:45.519Z,49.90
2019-01-28T17:14:17.469Z,49.90
2019-01-28T17:16:49.610Z,50.10
2019-01-28T17:19:21.788Z,50.00
2019-01-28T17:21:53.868Z,50.00
2019-01-28T17:24:26.133Z,49.90
2019-01-28T17:26:58.296Z,49.90
2019-01-28T17:29:30.281Z,49.90
2019-01-28T17:32:02.239Z,50.00
2019-01-28T17:34:34.170Z,50.00
2019-01-28T17:37:06.138Z,50.10
2019-01-28T17:39:38.071Z,49.90
2019-01-28T17:42:10.240Z,49.90
2019-01-28T17:44:42.162Z,49.90
2019-01-28T17:47:14.113Z,49.90
2019-01-28T17:49:46.034Z,49.80
2019-01-28T17:52:18.013Z,49.90
2019-01-28T17:54:49.943Z,49.90
2019-01-28T17:57:22.567Z,50.00
2019-01-28T17:59:54.486Z,49.90
2019-01-28T18:02:26.441Z,49.80
2019-01-28T18:04:58.355Z,49.90
2019-01-28T18:07:30.326Z,49.90
2019-01-28T18:10:02.286Z,50.00
2019-01-28T18:12:35.548Z,49.90
2019-01-28T18:15:10.223Z,50.10
2019-01-28T18:17:42.549Z,50.00
2019-01-28T18:20:16.496Z,49.90
2019-01-28T18:22:48.657Z,49.90
2019-01-28T18:25:32.118Z,49.90
2019-01-28T18:28:04.244Z,49.90
2019-01-28T18:30:38.549Z,49.80
2019-01-28T18:33:10.606Z,49.80
2019-01-28T18:35:42.783Z,49.90
2019-01-28T18:38:14.893Z,49.80
2019-01-28T18:40:47.218Z,49.90
2019-01-28T18:43:19.211Z,49.90
2019-01-28T18:45:51.154Z,49.90
2019-01-28T18:48:23.202Z,49.80
2019-01-28T18:50:59.587Z,49.90
2019-01-28T18:53:29.214Z,49.90
2019-01-28T18:56:01.168Z,49.90
2019-01-28T18:58:33.493Z,49.90
2019-01-28T19:01:05.911Z,49.70
2019-01-28T19:03:38.157Z,49.90
2019-01-28T19:09:09.617Z,49.60
2019-01-28T19:11:49.183Z,49.50
2019-01-28T19:14:28.329Z,49.50
2019-01-28T19:17:04.432Z,49.30
2019-01-28T19:19:38.071Z,49.40
2019-01-28T19:22:10.380Z,49.30
2019-01-28T19:24:42.365Z,49.30
2019-01-28T19:27:14.681Z,49.50
2019-01-28T19:29:46.911Z,49.10
2019-01-28T19:32:18.860Z,49.30
2019-01-28T19:34:50.958Z,49.40
2019-01-28T19:37:23.030Z,49.50
2019-01-28T19:39:55.033Z,50.00
2019-01-28T19:42:27.020Z,50.20
2019-01-28T19:44:58.997Z,50.80
2019-01-28T19:47:31.047Z,50.80
2019-01-28T19:50:03.115Z,51.10
2019-01-28T19:52:36.169Z,51.20
2019-01-28T19:55:10.625Z,52.10
2019-01-28T19:57:43.944Z,51.90
2019-01-28T20:00:21.543Z,51.30
2019-01-28T20:02:55.280Z,51.40
2019-01-28T20:05:27.343Z,51.20
2019-01-28T20:07:59.324Z,51.20
2019-01-28T20:10:31.318Z,51.00
2019-01-28T20:13:03.390Z,51.00
2019-01-28T20:15:35.371Z,51.10
2019-01-28T20:18:07.439Z,50.80
2019-01-28T20:20:39.708Z,50.20
2019-01-28T20:23:11.871Z,50.80
2019-01-28T20:25:43.987Z,50.80
2019-01-28T20:28:16.100Z,50.80
2019-01-28T20:30:48.375Z,50.80
2019-01-28T20:33:20.419Z,50.80
2019-01-28T20:35:52.464Z,50.80
2019-01-28T20:38:24.752Z,50.90
2019-01-28T20:40:57.039Z,50.90
2019-01-28T20:43:29.014Z,50.90
2019-01-28T20:46:01.448Z,50.80
2019-01-28T20:48:33.997Z,50.90
2019-01-28T20:51:06.187Z,50.80
2019-01-28T20:53:38.281Z,50.80
2019-01-28T20:56:10.284Z,50.80
2019-01-28T20:58:42.331Z,50.80
2019-01-28T21:01:14.607Z,50.90
2019-01-28T21:03:48.061Z,50.90
2019-01-28T21:06:20.257Z,50.80
2019-01-28T21:08:52.402Z,50.90
2019-01-28T21:11:24.466Z,50.80
2019-01-28T21:13:56.487Z,51.20
2019-01-28T21:16:28.510Z,50.80
2019-01-28T21:19:00.523Z,50.90
2019-01-28T21:21:41.478Z,50.90
2019-01-28T21:24:06.508Z,50.90
2019-01-28T21:26:38.925Z,50.90
2019-01-28T21:29:11.046Z,50.90
2019-01-28T21:31:43.331Z,50.80
2019-01-28T21:34:15.325Z,50.80
2019-01-28T21:36:48.758Z,51.00
2019-01-28T21:39:20.803Z,51.00
2019-01-28T21:41:53.448Z,50.90
2019-01-28T21:44:25.965Z,51.00
2019-01-28T21:46:58.658Z,51.00
2019-01-28T21:49:30.676Z,50.90
2019-01-28T21:52:02.710Z,50.90
2019-01-28T21:54:34.754Z,51.00
2019-01-28T21:57:07.209Z,50.90
2019-01-28T21:59:39.208Z,50.90
2019-01-28T22:02:11.521Z,50.80
2019-01-28T22:04:43.468Z,50.70
2019-01-28T22:07:15.459Z,50.80
2019-01-28T22:09:47.418Z,50.80
2019-01-28T22:12:19.434Z,51.30
2019-01-28T22:14:51.440Z,50.60
2019-01-28T22:17:23.486Z,50.60
2019-01-28T22:19:55.424Z,50.60
2019-01-28T22:22:27.618Z,50.60
2019-01-28T22:24:59.576Z,50.60
2019-01-28T22:27:31.649Z,50.60
2019-01-28T22:30:03.633Z,50.60
2019-01-28T22:32:35.836Z,50.60
2019-01-28T22:35:09.531Z,50.60
2019-01-28T22:37:41.558Z,50.60
2019-01-28T22:40:15.124Z,50.60
2019-01-28T22:42:47.153Z,50.70
2019-01-28T22:45:20.147Z,50.60
2019-01-28T22:47:52.159Z,50.60
2019-01-28T22:50:24.186Z,50.60
2019-01-28T22:52:56.210Z,50.60
2019-01-28T22:55:28.224Z,50.60
2019-01-28T22:58:00.286Z,50.70
2019-01-28T23:00:50.452Z,50.70
2019-01-28T23:03:24.927Z,50.60
2019-01-28T23:05:56.924Z,50.60
2019-01-28T23:08:28.917Z,50.70
2019-01-28T23:11:00.922Z,50.70
2019-01-28T23:13:32.980Z,50.70
2019-01-28T23:16:04.941Z,50.70
2019-01-28T23:18:37.569Z,50.60
2019-01-28T23:21:09.584Z,50.70
2019-01-28T23:23:42.465Z,50.70
2019-01-28T23:26:14.559Z,50.70
2019-01-28T23:28:46.631Z,50.70
2019-01-28T23:31:19.057Z,50.80
2019-01-28T23:33:51.612Z,50.80
2019-01-28T23:36:23.617Z,50.80
2019-01-28T23:38:55.746Z,50.80
2019-01-28T23:41:27.751Z,50.80
2019-01-28T23:43:59.789Z,50.80
2019-01-28T23:46:31.763Z,50.80
2019-01-28T23:49:03.799Z,50.80
2019-01-28T23:51:35.787Z,50.80
2019-01-28T23:54:07.834Z,50.80
2019-01-28T23:56:39.812Z,50.80
2019-01-28T23:59:11.851Z,50.80
